createdAt,value
2018-01-03T00:00:37.679Z,99.99
2018-01-03T00:01:37.667Z,99.99
2018-01-03T00:02:37.656Z,99.99
2018-01-03T00:03:37.644Z,99.99
2018-01-03T00:04:37.632Z,99.99
2018-01-03T00:05:37.623Z,99.99
2018-01-03T00:06:37.611Z,99.99
2018-01-03T00:07:37.600Z,99.99
2018-01-03T00:08:37.589Z,99.98
2018-01-03T00:09:37.577Z,99.88
2018-01-03T00:10:37.567Z,99.88
2018-01-03T00:11:37.556Z,99.99
2018-01-03T00:12:37.548Z,99.88
2018-01-03T00:13:37.533Z,99.99
2018-01-03T00:14:37.521Z,99.60
2018-01-03T00:15:37.511Z,99.99
2018-01-03T00:16:37.499Z,99.99
2018-01-03T00:17:37.488Z,99.99
2018-01-03T00:18:37.482Z,99.88
2018-01-03T00:19:37.465Z,99.99
2018-01-03T00:20:37.454Z,99.99
2018-01-03T00:21:37.443Z,99.99
2018-01-03T00:22:37.436Z,99.99
2018-01-03T00:23:37.421Z,99.99
2018-01-03T00:24:37.410Z,99.60
2018-01-03T00:25:37.398Z,98.83
2018-01-03T00:26:37.388Z,99.60
2018-01-03T00:27:37.377Z,99.41
2018-01-03T00:28:37.366Z,99.99
2018-01-03T00:29:37.354Z,99.22
2018-01-03T00:30:37.343Z,99.41
2018-01-03T00:31:37.333Z,99.22
2018-01-03T00:32:37.322Z,99.12
2018-01-03T00:33:37.311Z,99.02
2018-01-03T00:34:37.300Z,99.31
2018-01-03T00:35:37.290Z,98.74
2018-01-03T00:36:37.277Z,99.12
2018-01-03T00:37:37.267Z,98.74
2018-01-03T00:38:37.255Z,99.22
2018-01-03T00:39:37.246Z,99.02
2018-01-03T00:40:37.233Z,98.17
2018-01-03T00:41:37.222Z,98.65
2018-01-03T00:42:37.213Z,98.13
2018-01-03T00:43:37.201Z,97.74
2018-01-03T00:44:37.189Z,97.65
2018-01-03T00:45:37.178Z,97.27
2018-01-03T00:46:37.168Z,98.03
2018-01-03T00:47:37.157Z,97.27
2018-01-03T00:48:37.146Z,97.46
2018-01-03T00:49:37.138Z,96.98
2018-01-03T00:50:37.125Z,97.08
2018-01-03T00:51:37.113Z,97.46
2018-01-03T00:52:37.103Z,96.79
2018-01-03T00:53:37.098Z,96.51
2018-01-03T00:54:37.082Z,96.79
2018-01-03T00:55:37.071Z,96.60
2018-01-03T00:56:37.060Z,96.51
2018-01-03T00:57:37.049Z,95.75
2018-01-03T00:58:37.039Z,96.51
2018-01-03T00:59:37.028Z,95.75
2018-01-03T01:00:37.017Z,95.84
2018-01-03T01:01:37.006Z,95.94
2018-01-03T01:02:37.000Z,96.12
2018-01-03T01:03:36.985Z,95.56
2018-01-03T01:04:36.975Z,95.60
2018-01-03T01:05:36.964Z,95.41
2018-01-03T01:06:36.953Z,95.94
2018-01-03T01:07:36.944Z,95.51
2018-01-03T01:08:36.932Z,95.41
2018-01-03T01:09:36.922Z,95.32
2018-01-03T01:10:36.911Z,95.41
2018-01-03T01:11:36.914Z,95.32
2018-01-03T01:12:36.890Z,95.79
2018-01-03T01:13:36.878Z,94.74
2018-01-03T01:14:36.867Z,95.12
2018-01-03T01:15:36.858Z,95.32
2018-01-03T01:16:36.846Z,95.51
2018-01-03T01:17:36.836Z,95.60
2018-01-03T01:18:36.825Z,95.70
2018-01-03T01:19:36.814Z,95.79
2018-01-03T01:20:36.803Z,95.79
2018-01-03T01:21:36.795Z,95.79
2018-01-03T01:22:36.782Z,95.98
2018-01-03T01:23:36.772Z,96.65
2018-01-03T01:24:36.761Z,97.51
2018-01-03T01:25:36.752Z,98.50
2018-01-03T01:26:36.740Z,99.46
2018-01-03T01:27:36.729Z,99.99
2018-01-03T01:28:36.719Z,99.99
2018-01-03T01:29:36.708Z,99.99
2018-01-03T01:30:36.697Z,99.99
2018-01-03T01:31:36.686Z,99.99
2018-01-03T01:32:36.675Z,99.99
2018-01-03T01:33:36.663Z,99.99
2018-01-03T01:34:36.653Z,99.99
2018-01-03T01:35:36.642Z,99.99
2018-01-03T01:36:36.630Z,99.99
2018-01-03T01:37:36.619Z,99.99
2018-01-03T01:38:36.608Z,99.99
2018-01-03T01:39:36.597Z,99.99
2018-01-03T01:40:36.584Z,99.99
2018-01-03T01:41:36.575Z,99.99
2018-01-03T01:42:36.562Z,99.99
2018-01-03T01:43:36.551Z,99.99
2018-01-03T01:44:36.540Z,99.99
2018-01-03T01:45:36.528Z,99.99
2018-01-03T01:46:36.517Z,99.99
2018-01-03T01:47:36.506Z,99.99
2018-01-03T01:48:36.493Z,99.99
2018-01-03T01:49:36.482Z,99.99
2018-01-03T01:50:36.473Z,99.99
2018-01-03T01:51:36.460Z,99.99
2018-01-03T01:52:36.448Z,99.99
2018-01-03T01:53:36.438Z,99.99
2018-01-03T01:54:36.426Z,99.99
2018-01-03T01:55:36.415Z,99.99
2018-01-03T01:56:36.405Z,99.99
2018-01-03T01:57:36.393Z,99.99
2018-01-03T01:58:36.381Z,99.99
2018-01-03T01:59:36.375Z,99.99
2018-01-03T02:00:36.361Z,99.99
2018-01-03T02:01:36.347Z,99.99
2018-01-03T02:02:36.337Z,99.99
2018-01-03T02:03:36.327Z,99.99
2018-01-03T02:04:36.314Z,99.99
2018-01-03T02:05:36.307Z,99.99
2018-01-03T02:06:36.295Z,99.99
2018-01-03T02:07:36.281Z,99.99
2018-01-03T02:08:36.269Z,99.99
2018-01-03T02:09:36.257Z,99.99
2018-01-03T02:10:36.247Z,99.99
2018-01-03T02:11:36.236Z,99.99
2018-01-03T02:12:36.224Z,99.99
2018-01-03T02:13:36.214Z,99.99
2018-01-03T02:14:36.203Z,99.99
2018-01-03T02:15:36.191Z,99.99
2018-01-03T02:16:36.226Z,99.99
2018-01-03T02:17:36.168Z,99.99
2018-01-03T02:18:36.181Z,99.99
2018-01-03T02:19:36.147Z,99.99
2018-01-03T02:20:36.135Z,99.99
2018-01-03T02:21:36.124Z,99.99
2018-01-03T02:22:36.114Z,99.99
2018-01-03T02:23:36.104Z,99.99
2018-01-03T02:24:36.091Z,99.99
2018-01-03T02:25:36.081Z,99.99
2018-01-03T02:26:36.070Z,99.99
2018-01-03T02:27:36.059Z,99.99
2018-01-03T02:28:36.047Z,99.99
2018-01-03T02:29:36.038Z,99.99
2018-01-03T02:30:36.026Z,99.99
2018-01-03T02:31:36.017Z,99.99
2018-01-03T02:32:36.004Z,99.99
2018-01-03T02:33:35.993Z,99.99
2018-01-03T02:34:35.982Z,99.99
2018-01-03T02:35:35.972Z,99.99
2018-01-03T02:36:35.960Z,99.99
2018-01-03T02:37:35.950Z,99.99
2018-01-03T02:38:35.938Z,99.99
2018-01-03T02:39:35.928Z,99.99
2018-01-03T02:40:35.917Z,99.99
2018-01-03T02:41:35.906Z,99.99
2018-01-03T02:42:35.900Z,99.99
2018-01-03T02:43:35.883Z,99.99
2018-01-03T02:44:35.874Z,99.99
2018-01-03T02:45:35.862Z,99.99
2018-01-03T02:46:35.851Z,99.99
2018-01-03T02:47:35.842Z,99.99
2018-01-03T02:48:35.831Z,99.99
2018-01-03T02:49:35.819Z,99.99
2018-01-03T02:50:35.809Z,99.99
2018-01-03T02:51:35.798Z,99.99
2018-01-03T02:52:35.786Z,99.99
2018-01-03T02:53:35.776Z,99.99
2018-01-03T02:54:35.767Z,99.99
2018-01-03T02:55:35.756Z,99.99
2018-01-03T02:56:35.745Z,99.99
2018-01-03T02:57:35.734Z,99.99
2018-01-03T02:58:35.724Z,99.99
2018-01-03T02:59:35.714Z,99.99
2018-01-03T03:00:35.701Z,99.99
2018-01-03T03:01:35.691Z,99.99
2018-01-03T03:02:35.682Z,99.99
2018-01-03T03:03:35.671Z,99.99
2018-01-03T03:04:35.659Z,99.99
2018-01-03T03:05:35.648Z,99.99
2018-01-03T03:06:35.638Z,99.99
2018-01-03T03:07:35.628Z,99.99
2018-01-03T03:08:35.616Z,99.99
2018-01-03T03:09:35.605Z,99.99
2018-01-03T03:10:35.596Z,99.99
2018-01-03T03:11:35.584Z,99.99
2018-01-03T03:12:35.572Z,99.99
2018-01-03T03:13:35.562Z,99.99
2018-01-03T03:14:35.550Z,99.99
2018-01-03T03:15:35.541Z,99.99
2018-01-03T03:16:35.529Z,99.99
2018-01-03T03:17:35.518Z,99.99
2018-01-03T03:18:35.508Z,99.99
2018-01-03T03:19:35.497Z,99.99
2018-01-03T03:20:35.485Z,99.99
2018-01-03T03:21:35.474Z,99.99
2018-01-03T03:22:35.464Z,99.99
2018-01-03T03:23:35.454Z,99.99
2018-01-03T03:24:35.443Z,99.99
2018-01-03T03:25:35.433Z,99.99
2018-01-03T03:26:35.421Z,99.99
2018-01-03T03:27:35.412Z,99.99
2018-01-03T03:28:35.407Z,99.99
2018-01-03T03:29:35.390Z,99.99
2018-01-03T03:30:35.379Z,99.99
2018-01-03T03:31:35.368Z,99.99
2018-01-03T03:32:35.357Z,99.99
2018-01-03T03:33:35.349Z,99.99
2018-01-03T03:34:35.338Z,99.99
2018-01-03T03:35:35.327Z,99.99
2018-01-03T03:36:35.315Z,99.99
2018-01-03T03:37:35.304Z,99.99
2018-01-03T03:38:35.295Z,99.99
2018-01-03T03:39:35.285Z,99.99
2018-01-03T03:40:35.274Z,99.99
2018-01-03T03:41:35.263Z,99.99
2018-01-03T03:42:35.252Z,99.99
2018-01-03T03:43:35.242Z,99.99
2018-01-03T03:44:35.232Z,99.99
2018-01-03T03:45:35.219Z,99.99
2018-01-03T03:46:35.210Z,99.99
2018-01-03T03:47:35.200Z,99.99
2018-01-03T03:48:35.188Z,99.99
2018-01-03T03:49:35.177Z,99.99
2018-01-03T03:50:35.168Z,99.99
2018-01-03T03:51:35.156Z,99.99
2018-01-03T03:52:35.193Z,99.99
2018-01-03T03:53:35.134Z,99.99
2018-01-03T03:54:35.124Z,99.99
2018-01-03T03:55:35.114Z,99.99
2018-01-03T03:56:35.101Z,99.99
2018-01-03T03:57:35.089Z,99.99
2018-01-03T03:58:35.081Z,99.99
2018-01-03T03:59:35.071Z,99.99
2018-01-03T04:00:35.057Z,99.99
2018-01-03T04:01:35.047Z,99.99
2018-01-03T04:02:35.037Z,99.99
2018-01-03T04:03:35.026Z,99.99
2018-01-03T04:04:35.015Z,99.99
2018-01-03T04:05:35.004Z,99.99
2018-01-03T04:06:34.992Z,99.99
2018-01-03T04:07:34.982Z,99.99
2018-01-03T04:08:34.971Z,99.99
2018-01-03T04:09:34.959Z,99.99
2018-01-03T04:10:34.951Z,99.99
2018-01-03T04:11:34.939Z,99.99
2018-01-03T04:12:34.933Z,99.99
2018-01-03T04:13:34.916Z,99.99
2018-01-03T04:14:34.904Z,99.99
2018-01-03T04:15:34.893Z,99.99
2018-01-03T04:16:34.882Z,99.99
2018-01-03T04:17:34.870Z,99.99
2018-01-03T04:18:34.859Z,99.99
2018-01-03T04:19:34.852Z,99.99
2018-01-03T04:20:34.836Z,99.99
2018-01-03T04:21:34.825Z,99.99
2018-01-03T04:22:34.817Z,99.99
2018-01-03T04:23:34.802Z,99.99
2018-01-03T04:24:34.789Z,99.99
2018-01-03T04:25:34.778Z,99.99
2018-01-03T04:26:34.767Z,99.99
2018-01-03T04:27:34.756Z,98.69
2018-01-03T04:28:34.743Z,98.69
2018-01-03T04:29:34.731Z,99.64
2018-01-03T04:30:34.720Z,99.36
2018-01-03T04:31:34.707Z,99.99
2018-01-03T04:32:34.701Z,99.99
2018-01-03T04:33:34.683Z,99.99
2018-01-03T04:34:34.672Z,99.99
2018-01-03T04:35:34.660Z,99.99
2018-01-03T04:36:34.646Z,99.99
2018-01-03T04:37:34.635Z,99.99
2018-01-03T04:38:34.625Z,99.99
2018-01-03T04:39:34.612Z,99.99
2018-01-03T04:40:34.601Z,99.99
2018-01-03T04:41:34.589Z,99.99
2018-01-03T04:42:34.576Z,99.99
2018-01-03T04:43:34.565Z,99.99
2018-01-03T04:44:34.553Z,99.99
2018-01-03T04:45:34.543Z,99.99
2018-01-03T04:46:34.530Z,99.99
2018-01-03T04:47:34.518Z,99.99
2018-01-03T04:48:34.506Z,99.99
2018-01-03T04:49:34.494Z,99.99
2018-01-03T04:50:34.484Z,99.99
2018-01-03T04:51:34.471Z,99.99
2018-01-03T04:52:34.460Z,99.99
2018-01-03T04:53:34.449Z,99.99
2018-01-03T04:54:34.437Z,99.99
2018-01-03T04:55:34.425Z,99.99
2018-01-03T04:56:34.414Z,99.99
2018-01-03T04:57:34.401Z,99.99
2018-01-03T04:58:34.392Z,99.99
2018-01-03T04:59:34.379Z,99.99
2018-01-03T05:00:34.367Z,99.99
2018-01-03T05:01:34.355Z,99.99
2018-01-03T05:02:34.344Z,99.99
2018-01-03T05:03:34.333Z,99.99
2018-01-03T05:04:34.321Z,99.99
2018-01-03T05:05:34.309Z,99.99
2018-01-03T05:06:34.298Z,99.99
2018-01-03T05:07:34.286Z,99.99
2018-01-03T05:08:34.274Z,99.99
2018-01-03T05:09:34.262Z,99.99
2018-01-03T05:10:34.252Z,99.99
2018-01-03T05:11:34.239Z,99.99
2018-01-03T05:12:34.227Z,99.99
2018-01-03T05:13:34.221Z,99.99
2018-01-03T05:14:34.205Z,99.99
2018-01-03T05:15:34.193Z,99.99
2018-01-03T05:16:34.182Z,99.99
2018-01-03T05:17:34.170Z,99.99
2018-01-03T05:18:34.158Z,99.99
2018-01-03T05:19:34.146Z,99.99
2018-01-03T05:20:34.134Z,99.99
2018-01-03T05:21:34.122Z,99.99
2018-01-03T05:22:34.112Z,99.99
2018-01-03T05:23:34.100Z,99.99
2018-01-03T05:24:34.088Z,99.99
2018-01-03T05:25:34.078Z,99.99
2018-01-03T05:26:34.066Z,99.99
2018-01-03T05:27:34.054Z,99.99
2018-01-03T05:28:34.041Z,99.99
2018-01-03T05:29:34.031Z,99.99
2018-01-03T05:30:34.020Z,99.99
2018-01-03T05:31:34.009Z,99.99
2018-01-03T05:32:33.995Z,99.84
2018-01-03T05:33:33.997Z,99.99
2018-01-03T05:34:34.021Z,99.99
2018-01-03T05:35:33.962Z,99.99
2018-01-03T05:36:33.949Z,99.55
2018-01-03T05:37:33.938Z,99.74
2018-01-03T05:38:33.927Z,98.79
2018-01-03T05:39:33.915Z,99.26
2018-01-03T05:40:33.903Z,98.41
2018-01-03T05:41:33.894Z,98.88
2018-01-03T05:42:33.880Z,99.36
2018-01-03T05:43:33.868Z,99.99
2018-01-03T05:44:33.856Z,98.41
2018-01-03T05:45:33.845Z,98.12
2018-01-03T05:46:33.834Z,98.22
2018-01-03T05:47:33.826Z,97.55
2018-01-03T05:48:33.811Z,98.22
2018-01-03T05:49:33.799Z,97.74
2018-01-03T05:50:33.788Z,97.64
2018-01-03T05:51:33.776Z,97.93
2018-01-03T05:52:33.765Z,97.64
2018-01-03T05:53:33.754Z,98.12
2018-01-03T05:54:33.741Z,98.22
2018-01-03T05:55:33.731Z,98.31
2018-01-03T05:56:33.720Z,98.31
2018-01-03T05:57:33.708Z,98.97
2018-01-03T05:58:33.696Z,98.97
2018-01-03T05:59:33.686Z,98.97
2018-01-03T06:00:33.673Z,98.79
2018-01-03T06:01:33.662Z,98.50
2018-01-03T06:02:33.652Z,97.55
2018-01-03T06:03:33.641Z,97.64
2018-01-03T06:04:33.628Z,97.74
2018-01-03T06:05:33.617Z,96.89
2018-01-03T06:06:33.606Z,97.55
2018-01-03T06:07:33.594Z,97.74
2018-01-03T06:08:33.582Z,97.64
2018-01-03T06:09:33.571Z,97.27
2018-01-03T06:10:33.560Z,96.69
2018-01-03T06:11:33.549Z,96.31
2018-01-03T06:12:33.536Z,96.31
2018-01-03T06:13:33.526Z,96.22
2018-01-03T06:14:33.515Z,96.03
2018-01-03T06:15:33.503Z,96.12
2018-01-03T06:16:33.493Z,94.70
2018-01-03T06:17:33.481Z,94.89
2018-01-03T06:18:33.469Z,95.56
2018-01-03T06:19:33.459Z,94.79
2018-01-03T06:20:33.447Z,94.32
2018-01-03T06:21:33.436Z,94.03
2018-01-03T06:22:33.425Z,94.42
2018-01-03T06:23:33.413Z,93.75
2018-01-03T06:24:33.401Z,94.32
2018-01-03T06:25:33.392Z,94.03
2018-01-03T06:26:33.381Z,93.46
2018-01-03T06:27:33.368Z,93.37
2018-01-03T06:28:33.357Z,93.84
2018-01-03T06:29:33.344Z,93.75
2018-01-03T06:30:33.334Z,94.13
2018-01-03T06:31:33.323Z,93.55
2018-01-03T06:32:33.312Z,92.80
2018-01-03T06:33:33.299Z,94.03
2018-01-03T06:34:33.288Z,92.13
2018-01-03T06:35:33.277Z,91.85
2018-01-03T06:36:33.264Z,91.56
2018-01-03T06:37:33.254Z,91.37
2018-01-03T06:38:33.248Z,90.14
2018-01-03T06:39:33.231Z,90.14
2018-01-03T06:40:33.220Z,90.52
2018-01-03T06:41:33.209Z,90.04
2018-01-03T06:42:33.197Z,90.33
2018-01-03T06:43:33.187Z,90.42
2018-01-03T06:44:33.174Z,90.23
2018-01-03T06:45:33.168Z,90.52
2018-01-03T06:46:33.152Z,90.99
2018-01-03T06:47:33.140Z,89.94
2018-01-03T06:48:33.174Z,90.23
2018-01-03T06:49:33.116Z,89.37
2018-01-03T06:50:33.106Z,89.47
2018-01-03T06:51:33.094Z,88.33
2018-01-03T06:52:33.083Z,89.47
2018-01-03T06:53:33.072Z,87.76
2018-01-03T06:54:33.059Z,87.28
2018-01-03T06:55:33.049Z,86.80
2018-01-03T06:56:33.037Z,86.52
2018-01-03T06:57:33.026Z,86.71
2018-01-03T06:58:33.013Z,86.43
2018-01-03T06:59:33.002Z,86.33
2018-01-03T07:00:32.988Z,86.33
2018-01-03T07:01:32.979Z,86.71
2018-01-03T07:02:32.968Z,86.14
2018-01-03T07:03:32.956Z,86.71
2018-01-03T07:04:32.943Z,86.61
2018-01-03T07:05:32.936Z,86.43
2018-01-03T07:06:32.921Z,86.52
2018-01-03T07:07:32.909Z,85.57
2018-01-03T07:08:32.897Z,85.57
2018-01-03T07:09:32.885Z,85.76
2018-01-03T07:10:32.875Z,86.14
2018-01-03T07:11:32.862Z,85.86
2018-01-03T07:12:32.850Z,86.52
2018-01-03T07:13:32.839Z,85.57
2018-01-03T07:14:32.833Z,85.76
2018-01-03T07:15:32.816Z,84.72
2018-01-03T07:16:32.804Z,85.66
2018-01-03T07:17:32.792Z,85.38
2018-01-03T07:18:32.781Z,84.43
2018-01-03T07:19:32.770Z,84.52
2018-01-03T07:20:32.763Z,83.48
2018-01-03T07:21:32.746Z,83.19
2018-01-03T07:22:32.735Z,84.62
2018-01-03T07:23:32.724Z,83.58
2018-01-03T07:24:32.711Z,84.81
2018-01-03T07:25:32.700Z,85.10
2018-01-03T07:26:32.690Z,84.81
2018-01-03T07:27:32.678Z,84.33
2018-01-03T07:28:32.666Z,84.52
2018-01-03T07:29:32.654Z,84.72
2018-01-03T07:30:32.645Z,84.14
2018-01-03T07:31:32.631Z,83.67
2018-01-03T07:32:32.620Z,84.72
2018-01-03T07:33:32.608Z,84.43
2018-01-03T07:34:32.596Z,84.43
2018-01-03T07:35:32.586Z,84.52
2018-01-03T07:36:32.574Z,84.14
2018-01-03T07:37:32.562Z,84.91
2018-01-03T07:38:32.551Z,83.67
2018-01-03T07:39:32.540Z,82.91
2018-01-03T07:40:32.527Z,84.05
2018-01-03T07:41:32.518Z,83.48
2018-01-03T07:42:32.506Z,83.86
2018-01-03T07:43:32.494Z,82.71
2018-01-03T07:44:32.483Z,83.67
2018-01-03T07:45:32.517Z,84.62
2018-01-03T07:46:32.459Z,84.52
2018-01-03T07:47:32.449Z,84.43
2018-01-03T07:48:32.436Z,84.52
2018-01-03T07:49:32.426Z,84.14
2018-01-03T07:50:32.414Z,83.86
2018-01-03T07:51:32.402Z,83.19
2018-01-03T07:52:32.391Z,82.05
2018-01-03T07:53:32.379Z,81.58
2018-01-03T07:54:32.368Z,80.91
2018-01-03T07:55:32.356Z,80.34
2018-01-03T07:56:32.344Z,80.72
2018-01-03T07:57:32.333Z,80.82
2018-01-03T07:58:32.322Z,81.86
2018-01-03T07:59:32.311Z,82.24
2018-01-03T08:00:32.299Z,81.58
2018-01-03T08:01:32.287Z,82.05
2018-01-03T08:02:32.277Z,81.86
2018-01-03T08:03:32.265Z,82.62
2018-01-03T08:04:32.253Z,82.43
2018-01-03T08:05:32.241Z,81.77
2018-01-03T08:06:32.230Z,81.29
2018-01-03T08:07:32.219Z,80.44
2018-01-03T08:08:32.205Z,80.91
2018-01-03T08:09:32.196Z,81.01
2018-01-03T08:10:32.184Z,81.20
2018-01-03T08:11:32.173Z,81.20
2018-01-03T08:12:32.160Z,81.96
2018-01-03T08:13:32.150Z,81.01
2018-01-03T08:14:32.138Z,82.20
2018-01-03T08:15:32.127Z,83.53
2018-01-03T08:16:32.114Z,84.95
2018-01-03T08:17:32.103Z,85.62
2018-01-03T08:18:32.092Z,87.48
2018-01-03T08:19:32.081Z,89.95
2018-01-03T08:20:32.068Z,89.86
2018-01-03T08:21:32.056Z,90.61
2018-01-03T08:22:32.045Z,89.86
2018-01-03T08:23:32.033Z,88.24
2018-01-03T08:24:32.020Z,87.86
2018-01-03T08:25:32.009Z,88.53
2018-01-03T08:26:31.996Z,89.00
2018-01-03T08:27:31.985Z,88.34
2018-01-03T08:28:31.972Z,87.38
2018-01-03T08:29:31.960Z,86.72
2018-01-03T08:30:31.949Z,86.82
2018-01-03T08:31:31.936Z,87.57
2018-01-03T08:32:31.922Z,87.67
2018-01-03T08:33:31.913Z,87.67
2018-01-03T08:34:31.899Z,87.67
2018-01-03T08:35:31.887Z,86.91
2018-01-03T08:36:31.873Z,86.91
2018-01-03T08:37:31.861Z,86.63
2018-01-03T08:38:31.850Z,86.91
2018-01-03T08:39:31.838Z,86.53
2018-01-03T08:40:31.825Z,87.10
2018-01-03T08:41:31.813Z,87.67
2018-01-03T08:42:31.800Z,86.34
2018-01-03T08:43:31.788Z,87.29
2018-01-03T08:44:31.775Z,87.34
2018-01-03T08:45:31.764Z,86.49
2018-01-03T08:46:31.752Z,87.05
2018-01-03T08:47:31.739Z,87.82
2018-01-03T08:48:31.726Z,87.82
2018-01-03T08:49:31.722Z,88.39
2018-01-03T08:50:31.702Z,87.62
2018-01-03T08:51:31.690Z,87.91
2018-01-03T08:52:31.678Z,87.38
2018-01-03T08:53:31.666Z,87.24
2018-01-03T08:54:31.653Z,87.72
2018-01-03T08:55:31.641Z,87.43
2018-01-03T08:56:31.628Z,88.20
2018-01-03T08:57:31.616Z,87.24
2018-01-03T08:58:31.604Z,86.82
2018-01-03T08:59:31.596Z,87.10
2018-01-03T09:00:31.582Z,87.01
2018-01-03T09:01:31.567Z,87.38
2018-01-03T09:02:31.555Z,87.53
2018-01-03T09:03:31.543Z,86.82
2018-01-03T09:04:31.530Z,86.91
2018-01-03T09:05:31.518Z,86.82
2018-01-03T09:06:31.505Z,87.38
2018-01-03T09:07:31.499Z,87.29
2018-01-03T09:08:31.480Z,87.48
2018-01-03T09:09:31.467Z,87.86
2018-01-03T09:10:31.455Z,87.34
2018-01-03T09:11:31.445Z,86.72
2018-01-03T09:12:31.431Z,85.96
2018-01-03T09:13:31.418Z,85.86
2018-01-03T09:14:31.448Z,85.30
2018-01-03T09:15:31.396Z,85.86
2018-01-03T09:16:31.382Z,85.01
2018-01-03T09:17:31.371Z,84.63
2018-01-03T09:18:31.358Z,83.49
2018-01-03T09:19:31.353Z,83.30
2018-01-03T09:20:31.333Z,82.54
2018-01-03T09:21:31.323Z,82.54
2018-01-03T09:22:31.310Z,82.07
2018-01-03T09:23:31.299Z,82.49
2018-01-03T09:24:31.286Z,81.54
2018-01-03T09:25:31.273Z,80.83
2018-01-03T09:26:31.263Z,80.87
2018-01-03T09:27:31.251Z,81.12
2018-01-03T09:28:31.238Z,80.93
2018-01-03T09:29:31.226Z,80.26
2018-01-03T09:30:31.214Z,79.73
2018-01-03T09:31:31.203Z,79.44
2018-01-03T09:32:31.191Z,79.54
2018-01-03T09:33:31.178Z,80.30
2018-01-03T09:34:31.166Z,79.25
2018-01-03T09:35:31.155Z,78.69
2018-01-03T09:36:31.142Z,79.06
2018-01-03T09:37:31.130Z,78.88
2018-01-03T09:38:31.119Z,78.83
2018-01-03T09:39:31.108Z,78.93
2018-01-03T09:40:31.095Z,78.55
2018-01-03T09:41:31.083Z,79.03
2018-01-03T09:42:31.072Z,78.59
2018-01-03T09:43:31.061Z,78.40
2018-01-03T09:44:31.048Z,78.78
2018-01-03T09:45:31.036Z,78.50
2018-01-03T09:46:31.025Z,78.40
2018-01-03T09:47:31.014Z,77.07
2018-01-03T09:48:31.002Z,78.59
2018-01-03T09:49:30.991Z,77.83
2018-01-03T09:50:30.980Z,77.26
2018-01-03T09:51:30.968Z,77.55
2018-01-03T09:52:30.957Z,77.36
2018-01-03T09:53:30.944Z,76.50
2018-01-03T09:54:30.933Z,77.07
2018-01-03T09:55:30.923Z,76.78
2018-01-03T09:56:30.911Z,76.88
2018-01-03T09:57:30.900Z,76.31
2018-01-03T09:58:30.888Z,76.50
2018-01-03T09:59:30.877Z,76.21
2018-01-03T10:00:30.865Z,76.21
2018-01-03T10:01:30.854Z,76.50
2018-01-03T10:02:30.843Z,76.69
2018-01-03T10:03:30.832Z,76.40
2018-01-03T10:04:30.822Z,76.03
2018-01-03T10:05:30.809Z,76.50
2018-01-03T10:06:30.797Z,75.84
2018-01-03T10:07:30.787Z,75.84
2018-01-03T10:08:30.775Z,76.40
2018-01-03T10:09:30.767Z,75.93
2018-01-03T10:10:30.753Z,75.84
2018-01-03T10:11:30.742Z,75.36
2018-01-03T10:12:30.732Z,75.26
2018-01-03T10:13:30.719Z,75.84
2018-01-03T10:14:30.709Z,76.03
2018-01-03T10:15:30.697Z,75.84
2018-01-03T10:16:30.739Z,76.03
2018-01-03T10:17:30.674Z,76.31
2018-01-03T10:18:30.662Z,76.88
2018-01-03T10:19:30.652Z,76.31
2018-01-03T10:20:30.639Z,76.97
2018-01-03T10:21:30.629Z,76.50
2018-01-03T10:22:30.618Z,76.88
2018-01-03T10:23:30.606Z,76.88
2018-01-03T10:24:30.599Z,76.78
2018-01-03T10:25:30.583Z,77.17
2018-01-03T10:26:30.571Z,76.88
2018-01-03T10:27:30.560Z,76.50
2018-01-03T10:28:30.546Z,76.88
2018-01-03T10:29:30.536Z,76.50
2018-01-03T10:30:30.525Z,77.17
2018-01-03T10:31:30.521Z,77.17
2018-01-03T10:32:30.507Z,77.83
2018-01-03T10:33:30.489Z,77.36
2018-01-03T10:34:30.479Z,77.45
2018-01-03T10:35:30.468Z,77.17
2018-01-03T10:36:30.456Z,77.45
2018-01-03T10:37:30.442Z,77.17
2018-01-03T10:38:30.433Z,77.92
2018-01-03T10:39:30.420Z,77.36
2018-01-03T10:40:30.408Z,77.45
2018-01-03T10:41:30.397Z,77.45
2018-01-03T10:42:30.385Z,76.78
2018-01-03T10:43:30.374Z,76.31
2018-01-03T10:44:30.362Z,76.59
2018-01-03T10:45:30.351Z,76.88
2018-01-03T10:46:30.338Z,76.78
2018-01-03T10:47:30.328Z,76.97
2018-01-03T10:48:30.315Z,76.78
2018-01-03T10:49:30.303Z,77.07
2018-01-03T10:50:30.292Z,77.07
2018-01-03T10:51:30.280Z,76.69
2018-01-03T10:52:30.268Z,77.07
2018-01-03T10:53:30.257Z,76.31
2018-01-03T10:54:30.246Z,76.21
2018-01-03T10:55:30.234Z,76.21
2018-01-03T10:56:30.221Z,76.40
2018-01-03T10:57:30.210Z,76.59
2018-01-03T10:58:30.199Z,76.78
2018-01-03T10:59:30.188Z,76.69
2018-01-03T11:00:30.175Z,76.50
2018-01-03T11:01:30.164Z,76.78
2018-01-03T11:02:30.153Z,76.88
2018-01-03T11:03:30.142Z,77.17
2018-01-03T11:04:30.128Z,77.73
2018-01-03T11:05:30.117Z,78.69
2018-01-03T11:06:30.106Z,79.31
2018-01-03T11:07:30.094Z,79.31
2018-01-03T11:08:30.082Z,79.35
2018-01-03T11:09:30.071Z,80.26
2018-01-03T11:10:30.058Z,80.45
2018-01-03T11:11:30.046Z,80.83
2018-01-03T11:12:30.034Z,81.87
2018-01-03T11:13:30.022Z,81.40
2018-01-03T11:14:30.011Z,81.40
2018-01-03T11:15:29.999Z,81.21
2018-01-03T11:16:29.987Z,80.07
2018-01-03T11:17:29.976Z,80.35
2018-01-03T11:18:29.963Z,79.41
2018-01-03T11:19:29.952Z,79.88
2018-01-03T11:20:29.939Z,79.41
2018-01-03T11:21:29.929Z,78.88
2018-01-03T11:22:29.925Z,79.35
2018-01-03T11:23:29.905Z,79.44
2018-01-03T11:24:29.893Z,79.44
2018-01-03T11:25:29.881Z,80.35
2018-01-03T11:26:29.872Z,81.02
2018-01-03T11:27:29.857Z,81.21
2018-01-03T11:28:29.845Z,81.40
2018-01-03T11:29:29.833Z,81.49
2018-01-03T11:30:29.821Z,81.21
2018-01-03T11:31:29.809Z,81.87
2018-01-03T11:32:29.797Z,81.87
2018-01-03T11:33:29.785Z,81.02
2018-01-03T11:34:29.774Z,81.87
2018-01-03T11:35:29.762Z,82.16
2018-01-03T11:36:29.750Z,81.97
2018-01-03T11:37:29.737Z,82.45
2018-01-03T11:38:29.726Z,83.01
2018-01-03T11:39:29.715Z,81.78
2018-01-03T11:40:29.701Z,81.68
2018-01-03T11:41:29.693Z,81.68
2018-01-03T11:42:29.686Z,81.87
2018-01-03T11:43:29.673Z,81.87
2018-01-03T11:44:29.654Z,82.45
2018-01-03T11:45:29.641Z,83.01
2018-01-03T11:46:29.631Z,81.78
2018-01-03T11:47:29.619Z,82.26
2018-01-03T11:48:29.607Z,83.97
2018-01-03T11:49:29.594Z,83.11
2018-01-03T11:50:29.583Z,83.49
2018-01-03T11:51:29.571Z,83.11
2018-01-03T11:52:29.558Z,83.11
2018-01-03T11:53:29.546Z,82.64
2018-01-03T11:54:29.535Z,82.82
2018-01-03T11:55:29.523Z,82.64
2018-01-03T11:56:29.510Z,82.07
2018-01-03T11:57:29.499Z,81.59
2018-01-03T11:58:29.495Z,81.97
2018-01-03T11:59:29.475Z,81.97
2018-01-03T12:00:29.462Z,81.78
2018-01-03T12:01:29.450Z,81.40
2018-01-03T12:02:29.439Z,81.21
2018-01-03T12:03:29.427Z,81.12
2018-01-03T12:04:29.414Z,80.45
2018-01-03T12:05:29.402Z,80.07
2018-01-03T12:06:29.393Z,80.83
2018-01-03T12:07:29.378Z,80.58
2018-01-03T12:08:29.366Z,80.55
2018-01-03T12:09:29.353Z,81.68
2018-01-03T12:10:29.341Z,81.35
2018-01-03T12:11:29.330Z,81.49
2018-01-03T12:12:29.321Z,81.40
2018-01-03T12:13:29.306Z,81.40
2018-01-03T12:14:29.297Z,81.87
2018-01-03T12:15:29.281Z,81.40
2018-01-03T12:16:29.268Z,81.40
2018-01-03T12:17:29.256Z,81.59
2018-01-03T12:18:29.245Z,81.97
2018-01-03T12:19:29.233Z,81.02
2018-01-03T12:20:29.220Z,81.12
2018-01-03T12:21:29.208Z,81.21
2018-01-03T12:22:29.197Z,81.87
2018-01-03T12:23:29.185Z,81.40
2018-01-03T12:24:29.172Z,81.49
2018-01-03T12:25:29.163Z,81.49
2018-01-03T12:26:29.148Z,82.07
2018-01-03T12:27:29.136Z,81.97
2018-01-03T12:28:29.123Z,82.35
2018-01-03T12:29:29.111Z,81.68
2018-01-03T12:30:29.099Z,80.74
2018-01-03T12:31:29.087Z,79.73
2018-01-03T12:32:29.081Z,79.92
2018-01-03T12:33:29.063Z,79.92
2018-01-03T12:34:29.050Z,79.54
2018-01-03T12:35:29.039Z,78.50
2018-01-03T12:36:29.025Z,79.25
2018-01-03T12:37:29.013Z,78.59
2018-01-03T12:38:29.002Z,78.97
2018-01-03T12:39:28.990Z,78.78
2018-01-03T12:40:28.978Z,78.02
2018-01-03T12:41:28.967Z,77.17
2018-01-03T12:42:28.954Z,76.59
2018-01-03T12:43:28.942Z,76.21
2018-01-03T12:44:28.937Z,76.59
2018-01-03T12:45:28.918Z,76.88
2018-01-03T12:46:28.906Z,76.78
2018-01-03T12:47:28.895Z,76.40
2018-01-03T12:48:28.880Z,76.59
2018-01-03T12:49:28.893Z,76.69
2018-01-03T12:50:28.859Z,77.73
2018-01-03T12:51:28.846Z,77.07
2018-01-03T12:52:28.833Z,76.88